This is the latest recevied weather packets stored in our database for station/object KD7CTY. If no packets are shown the sender has not sent any weather packets the latest 10 day(s).
| Time | Temp. | Humidity | Pressure | Rain* | Wind** | Luminosity | Snow |
|---|---|---|---|---|---|---|---|
| 1787767151 | 16.67° C | 87% | 1016.5 hPa | 0 mm | - | 198 W/m² | - |
| 1787766850 | 16.67° C | 87% | 1016.5 hPa | 0 mm | - | 187 W/m² | - |
| 1787766544 | 16.67° C | 85% | 1016.4 hPa | 0 mm | - | 195 W/m² | - |
| 1787766244 | 17.22° C | 85% | 1016.9 hPa | 0 mm | - | 231 W/m² | - |
| 1787765939 | 16.67° C | 86% | 1016.7 hPa | 0 mm | - | 190 W/m² | - |
| 1787765640 | 16.67° C | 85% | 1016.5 hPa | 0 mm | - | 232 W/m² | - |
| 1787765331 | 16.67° C | 87% | 1016.5 hPa | 0 mm | - | 252 W/m² | - |
| 1787765029 | 16.67° C | 88% | 1016.5 hPa | 0 mm | - | 201 W/m² | - |
| 1787764725 | 16.67° C | 87% | 1016.5 hPa | 0 mm | - | 261 W/m² | - |
| 1787764420 | 16.11° C | 89% | 1016.6 hPa | 0 mm | - | 230 W/m² | - |
| 1787764116 | 16.11° C | 89% | 1016.3 hPa | 0 mm | - | 172 W/m² | - |
| 1787763812 | 16.67° C | 85% | 1016.5 hPa | 0 mm | - | 197 W/m² | - |
| 1787763506 | 17.22° C | 85% | 1016.5 hPa | 0 mm | - | 277 W/m² | - |
| 1787763201 | 15.56° C | 90% | 1016.5 hPa | 0 mm | - | 605 W/m² | - |
| 1787762896 | 15° C | 94% | 1016.6 hPa | 0 mm | - | 129 W/m² | - |
| 1787762591 | 15° C | 96% | 1016.6 hPa | 0 mm | - | 153 W/m² | - |
| 1787762288 | 15° C | 98% | 1016.5 hPa | 0 mm | - | 150 W/m² | - |
| 1787761982 | 15° C | 99% | 1016.1 hPa | 0 mm | - | 138 W/m² | - |
| 1787761677 | 14.44° C | 99% | 1016.3 hPa | 0 mm | - | 114 W/m² | - |
| 1787761373 | 14.44° C | 99% | 1016.3 hPa | 0 mm | - | 115 W/m² | - |
| 1787761071 | 14.44° C | 98% | 1016.6 hPa | 0 mm | - | 100 W/m² | - |
| 1787760770 | 15° C | 97% | 1016.6 hPa | 0 mm | - | 106 W/m² | - |
| 1787760464 | 15° C | 97% | 1016.3 hPa | 0 mm | - | 88 W/m² | - |
| 1787760158 | 15° C | 96% | 1016.3 hPa | 0 mm | - | 103 W/m² | - |
| 1787759855 | 15° C | 96% | 1016.4 hPa | 0 mm | - | 109 W/m² | - |
* Rain latest hour (hover to see other rain measurements)
** Current wind speed in m/s (hover to see current wind gust speed)